sensor_id;sensor_type;location;lat;lon;timestamp;pressure;altitude;pressure_sealevel;temperature;humidity
52935;BME280;38802;50.198;19.796;2024-02-21T00:01:44;96758.21;;;2.61;100.00
52935;BME280;38802;50.198;19.796;2024-02-21T00:04:12;96764.10;;;2.59;100.00
52935;BME280;38802;50.198;19.796;2024-02-21T00:06:40;96761.75;;;2.58;100.00
52935;BME280;38802;50.198;19.796;2024-02-21T00:09:08;96764.67;;;2.58;100.00
52935;BME280;38802;50.198;19.796;2024-02-21T00:11:37;96764.98;;;2.55;100.00
52935;BME280;38802;50.198;19.796;2024-02-21T00:14:05;96767.17;;;2.51;100.00
52935;BME280;38802;50.198;19.796;2024-02-21T00:16:33;96766.33;;;2.47;100.00
52935;BME280;38802;50.198;19.796;2024-02-21T00:19:02;96767.62;;;2.45;100.00
52935;BME280;38802;50.198;19.796;2024-02-21T00:21:30;96765.94;;;2.44;100.00
52935;BME280;38802;50.198;19.796;2024-02-21T00:23:58;96763.04;;;2.44;100.00
52935;BME280;38802;50.198;19.796;2024-02-21T00:26:26;96761.67;;;2.48;100.00
52935;BME280;38802;50.198;19.796;2024-02-21T00:28:54;96761.66;;;2.52;100.00
52935;BME280;38802;50.198;19.796;2024-02-21T00:31:22;96757.89;;;2.56;100.00
52935;BME280;38802;50.198;19.796;2024-02-21T00:33:50;96754.77;;;2.57;100.00
52935;BME280;38802;50.198;19.796;2024-02-21T00:36:18;96755.33;;;2.61;100.00
52935;BME280;38802;50.198;19.796;2024-02-21T00:38:46;96758.17;;;2.62;100.00
52935;BME280;38802;50.198;19.796;2024-02-21T00:41:14;96754.70;;;2.63;100.00
52935;BME280;38802;50.198;19.796;2024-02-21T00:43:42;96748.79;;;2.65;100.00
52935;BME280;38802;50.198;19.796;2024-02-21T00:46:10;96746.64;;;2.67;100.00
52935;BME280;38802;50.198;19.796;2024-02-21T00:48:39;96742.83;;;2.68;100.00
52935;BME280;38802;50.198;19.796;2024-02-21T00:51:07;96738.01;;;2.68;100.00
52935;BME280;38802;50.198;19.796;2024-02-21T00:53:35;96739.52;;;2.69;100.00
52935;BME280;38802;50.198;19.796;2024-02-21T00:56:06;96736.17;;;2.71;100.00
52935;BME280;38802;50.198;19.796;2024-02-21T00:58:34;96730.31;;;2.71;100.00
52935;BME280;38802;50.198;19.796;2024-02-21T01:01:02;96732.73;;;2.71;100.00
52935;BME280;38802;50.198;19.796;2024-02-21T01:03:31;96730.65;;;2.72;100.00
52935;BME280;38802;50.198;19.796;2024-02-21T01:05:59;96729.39;;;2.73;100.00
52935;BME280;38802;50.198;19.796;2024-02-21T01:08:27;96728.03;;;2.73;100.00
52935;BME280;38802;50.198;19.796;2024-02-21T01:10:55;96727.30;;;2.74;100.00
52935;BME280;38802;50.198;19.796;2024-02-21T01:13:23;96723.97;;;2.75;100.00
52935;BME280;38802;50.198;19.796;2024-02-21T01:15:51;96723.69;;;2.78;100.00
52935;BME280;38802;50.198;19.796;2024-02-21T01:18:19;96719.03;;;2.78;100.00
52935;BME280;38802;50.198;19.796;2024-02-21T01:20:47;96716.29;;;2.78;100.00
52935;BME280;38802;50.198;19.796;2024-02-21T01:23:15;96715.80;;;2.81;100.00
52935;BME280;38802;50.198;19.796;2024-02-21T01:25:43;96707.07;;;2.81;100.00
52935;BME280;38802;50.198;19.796;2024-02-21T01:28:11;96703.85;;;2.84;100.00
52935;BME280;38802;50.198;19.796;2024-02-21T01:30:39;96707.17;;;2.78;100.00
52935;BME280;38802;50.198;19.796;2024-02-21T01:33:07;96703.14;;;2.77;100.00
52935;BME280;38802;50.198;19.796;2024-02-21T01:35:35;96702.63;;;2.77;100.00
52935;BME280;38802;50.198;19.796;2024-02-21T01:38:05;96704.52;;;2.77;100.00
52935;BME280;38802;50.198;19.796;2024-02-21T01:40:33;96707.23;;;2.77;100.00
52935;BME280;38802;50.198;19.796;2024-02-21T01:43:01;96708.70;;;2.75;100.00
52935;BME280;38802;50.198;19.796;2024-02-21T01:45:29;96705.14;;;2.74;100.00
52935;BME280;38802;50.198;19.796;2024-02-21T01:47:57;96705.73;;;2.76;100.00
52935;BME280;38802;50.198;19.796;2024-02-21T01:50:26;96701.60;;;2.77;100.00
52935;BME280;38802;50.198;19.796;2024-02-21T01:52:54;96697.32;;;2.80;100.00
52935;BME280;38802;50.198;19.796;2024-02-21T01:55:22;96689.84;;;2.83;100.00
52935;BME280;38802;50.198;19.796;2024-02-21T01:57:50;96690.64;;;2.84;100.00
52935;BME280;38802;50.198;19.796;2024-02-21T02:00:19;96691.89;;;2.87;100.00
52935;BME280;38802;50.198;19.796;2024-02-21T02:02:47;96693.48;;;2.86;100.00
52935;BME280;38802;50.198;19.796;2024-02-21T02:05:15;96688.98;;;2.83;100.00
52935;BME280;38802;50.198;19.796;2024-02-21T02:07:45;96691.28;;;2.81;100.00
52935;BME280;38802;50.198;19.796;2024-02-21T02:10:13;96688.82;;;2.79;100.00
52935;BME280;38802;50.198;19.796;2024-02-21T02:12:41;96690.12;;;2.76;100.00
52935;BME280;38802;50.198;19.796;2024-02-21T02:15:10;96688.11;;;2.75;100.00
52935;BME280;38802;50.198;19.796;2024-02-21T02:17:41;96683.86;;;2.74;100.00
52935;BME280;38802;50.198;19.796;2024-02-21T02:20:14;96678.70;;;2.75;100.00
52935;BME280;38802;50.198;19.796;2024-02-21T02:22:43;96672.71;;;2.75;100.00
52935;BME280;38802;50.198;19.796;2024-02-21T02:25:13;96672.40;;;2.78;100.00
52935;BME280;38802;50.198;19.796;2024-02-21T02:27:42;96673.80;;;2.77;100.00
52935;BME280;38802;50.198;19.796;2024-02-21T02:30:12;96674.13;;;2.77;100.00
52935;BME280;38802;50.198;19.796;2024-02-21T02:32:44;96674.40;;;2.79;100.00
52935;BME280;38802;50.198;19.796;2024-02-21T02:35:12;96674.89;;;2.79;100.00
52935;BME280;38802;50.198;19.796;2024-02-21T02:37:48;96675.59;;;2.79;100.00
52935;BME280;38802;50.198;19.796;2024-02-21T02:40:17;96671.20;;;2.77;100.00
52935;BME280;38802;50.198;19.796;2024-02-21T02:42:46;96669.48;;;2.77;100.00
52935;BME280;38802;50.198;19.796;2024-02-21T02:45:18;96669.12;;;2.78;100.00
52935;BME280;38802;50.198;19.796;2024-02-21T02:47:46;96671.51;;;2.78;100.00
52935;BME280;38802;50.198;19.796;2024-02-21T02:50:15;96670.52;;;2.77;100.00
52935;BME280;38802;50.198;19.796;2024-02-21T02:52:43;96672.01;;;2.78;100.00
52935;BME280;38802;50.198;19.796;2024-02-21T02:55:11;96667.39;;;2.82;100.00
52935;BME280;38802;50.198;19.796;2024-02-21T02:57:39;96664.72;;;2.84;100.00
52935;BME280;38802;50.198;19.796;2024-02-21T03:00:14;96666.27;;;2.84;100.00
52935;BME280;38802;50.198;19.796;2024-02-21T03:02:43;96665.92;;;2.84;100.00
52935;BME280;38802;50.198;19.796;2024-02-21T03:05:16;96665.32;;;2.82;100.00
52935;BME280;38802;50.198;19.796;2024-02-21T03:07:45;96659.69;;;2.82;100.00
52935;BME280;38802;50.198;19.796;2024-02-21T03:10:14;96659.25;;;2.83;100.00
52935;BME280;38802;50.198;19.796;2024-02-21T03:12:46;96653.23;;;2.84;100.00
52935;BME280;38802;50.198;19.796;2024-02-21T03:15:14;96651.16;;;2.84;100.00
52935;BME280;38802;50.198;19.796;2024-02-21T03:17:42;96653.75;;;2.88;100.00
52935;BME280;38802;50.198;19.796;2024-02-21T03:20:11;96644.05;;;2.90;100.00
52935;BME280;38802;50.198;19.796;2024-02-21T03:22:41;96642.05;;;2.92;100.00
52935;BME280;38802;50.198;19.796;2024-02-21T03:25:09;96639.86;;;2.91;100.00
52935;BME280;38802;50.198;19.796;2024-02-21T03:27:38;96647.18;;;2.92;100.00
52935;BME280;38802;50.198;19.796;2024-02-21T03:30:07;96645.17;;;2.92;100.00
52935;BME280;38802;50.198;19.796;2024-02-21T03:32:35;96646.77;;;2.91;100.00
52935;BME280;38802;50.198;19.796;2024-02-21T03:35:04;96651.76;;;2.90;100.00
52935;BME280;38802;50.198;19.796;2024-02-21T03:37:32;96654.89;;;2.89;100.00
52935;BME280;38802;50.198;19.796;2024-02-21T03:40:00;96650.48;;;2.88;100.00
52935;BME280;38802;50.198;19.796;2024-02-21T03:42:29;96642.91;;;2.88;100.00
52935;BME280;38802;50.198;19.796;2024-02-21T03:44:59;96639.38;;;2.87;100.00
52935;BME280;38802;50.198;19.796;2024-02-21T03:47:27;96638.14;;;2.84;100.00
52935;BME280;38802;50.198;19.796;2024-02-21T03:49:55;96641.64;;;2.82;100.00
52935;BME280;38802;50.198;19.796;2024-02-21T03:52:23;96642.99;;;2.79;100.00
52935;BME280;38802;50.198;19.796;2024-02-21T03:54:51;96647.98;;;2.79;100.00
52935;BME280;38802;50.198;19.796;2024-02-21T03:57:19;96652.38;;;2.76;100.00
52935;BME280;38802;50.198;19.796;2024-02-21T03:59:50;96652.62;;;2.75;100.00
52935;BME280;38802;50.198;19.796;2024-02-21T04:02:19;96651.58;;;2.75;100.00
52935;BME280;38802;50.198;19.796;2024-02-21T04:04:47;96648.79;;;2.76;100.00
52935;BME280;38802;50.198;19.796;2024-02-21T04:07:16;96639.86;;;2.76;100.00
52935;BME280;38802;50.198;19.796;2024-02-21T04:09:44;96638.75;;;2.78;100.00
52935;BME280;38802;50.198;19.796;2024-02-21T04:12:12;96632.21;;;2.78;100.00
52935;BME280;38802;50.198;19.796;2024-02-21T04:14:40;96634.01;;;2.77;100.00
52935;BME280;38802;50.198;19.796;2024-02-21T04:17:12;96630.45;;;2.75;100.00
52935;BME280;38802;50.198;19.796;2024-02-21T04:19:40;96626.59;;;2.74;100.00
52935;BME280;38802;50.198;19.796;2024-02-21T04:22:08;96625.67;;;2.71;100.00
52935;BME280;38802;50.198;19.796;2024-02-21T04:24:36;96620.95;;;2.69;100.00
52935;BME280;38802;50.198;19.796;2024-02-21T04:27:05;96620.54;;;2.67;100.00
52935;BME280;38802;50.198;19.796;2024-02-21T04:29:33;96617.05;;;2.65;100.00
52935;BME280;38802;50.198;19.796;2024-02-21T04:32:02;96622.41;;;2.64;100.00
52935;BME280;38802;50.198;19.796;2024-02-21T04:34:30;96631.50;;;2.64;100.00
52935;BME280;38802;50.198;19.796;2024-02-21T04:36:59;96629.86;;;2.62;100.00
52935;BME280;38802;50.198;19.796;2024-02-21T04:39:27;96630.80;;;2.64;100.00
52935;BME280;38802;50.198;19.796;2024-02-21T04:41:55;96633.05;;;2.64;100.00
52935;BME280;38802;50.198;19.796;2024-02-21T04:44:23;96632.17;;;2.64;100.00
52935;BME280;38802;50.198;19.796;2024-02-21T04:46:51;96628.73;;;2.65;100.00
52935;BME280;38802;50.198;19.796;2024-02-21T04:49:19;96625.23;;;2.66;100.00
52935;BME280;38802;50.198;19.796;2024-02-21T04:51:47;96626.13;;;2.65;100.00
52935;BME280;38802;50.198;19.796;2024-02-21T04:54:15;96630.11;;;2.65;100.00
52935;BME280;38802;50.198;19.796;2024-02-21T04:56:43;96631.23;;;2.66;100.00
52935;BME280;38802;50.198;19.796;2024-02-21T04:59:11;96630.45;;;2.64;100.00
52935;BME280;38802;50.198;19.796;2024-02-21T05:01:39;96632.40;;;2.63;100.00
52935;BME280;38802;50.198;19.796;2024-02-21T05:04:07;96631.13;;;2.65;100.00
52935;BME280;38802;50.198;19.796;2024-02-21T05:06:39;96625.61;;;2.65;100.00
52935;BME280;38802;50.198;19.796;2024-02-21T05:09:08;96624.31;;;2.67;100.00
52935;BME280;38802;50.198;19.796;2024-02-21T05:11:37;96629.79;;;2.68;100.00
52935;BME280;38802;50.198;19.796;2024-02-21T05:14:07;96628.80;;;2.67;100.00
52935;BME280;38802;50.198;19.796;2024-02-21T05:16:35;96629.69;;;2.66;100.00
52935;BME280;38802;50.198;19.796;2024-02-21T05:19:04;96623.02;;;2.69;100.00
52935;BME280;38802;50.198;19.796;2024-02-21T05:21:32;96623.77;;;2.68;100.00
52935;BME280;38802;50.198;19.796;2024-02-21T05:24:00;96625.52;;;2.67;100.00
52935;BME280;38802;50.198;19.796;2024-02-21T05:26:28;96624.33;;;2.63;100.00
52935;BME280;38802;50.198;19.796;2024-02-21T05:28:57;96620.05;;;2.63;100.00
52935;BME280;38802;50.198;19.796;2024-02-21T05:31:49;96624.82;;;2.64;100.00
52935;BME280;38802;50.198;19.796;2024-02-21T05:34:22;96622.11;;;2.67;100.00
52935;BME280;38802;50.198;19.796;2024-02-21T05:36:51;96625.96;;;2.65;100.00
52935;BME280;38802;50.198;19.796;2024-02-21T05:39:20;96627.17;;;2.65;100.00
52935;BME280;38802;50.198;19.796;2024-02-21T05:41:50;96629.27;;;2.64;100.00
52935;BME280;38802;50.198;19.796;2024-02-21T05:44:18;96624.14;;;2.67;100.00
52935;BME280;38802;50.198;19.796;2024-02-21T05:46:47;96617.23;;;2.68;100.00
52935;BME280;38802;50.198;19.796;2024-02-21T05:49:15;96617.67;;;2.70;100.00
52935;BME280;38802;50.198;19.796;2024-02-21T05:51:43;96615.99;;;2.69;100.00
52935;BME280;38802;50.198;19.796;2024-02-21T05:54:12;96615.14;;;2.69;100.00
52935;BME280;38802;50.198;19.796;2024-02-21T05:56:44;96621.46;;;2.70;100.00
52935;BME280;38802;50.198;19.796;2024-02-21T05:59:12;96611.32;;;2.70;100.00
52935;BME280;38802;50.198;19.796;2024-02-21T06:01:41;96605.19;;;2.69;100.00
52935;BME280;38802;50.198;19.796;2024-02-21T06:04:09;96603.02;;;2.68;100.00
52935;BME280;38802;50.198;19.796;2024-02-21T06:06:37;96603.59;;;2.66;100.00
52935;BME280;38802;50.198;19.796;2024-02-21T06:09:06;96598.65;;;2.62;100.00
52935;BME280;38802;50.198;19.796;2024-02-21T06:11:34;96596.00;;;2.60;100.00
52935;BME280;38802;50.198;19.796;2024-02-21T06:14:05;96603.55;;;2.60;100.00
52935;BME280;38802;50.198;19.796;2024-02-21T06:16:34;96601.70;;;2.59;100.00
52935;BME280;38802;50.198;19.796;2024-02-21T06:19:02;96606.36;;;2.58;100.00
52935;BME280;38802;50.198;19.796;2024-02-21T06:21:33;96603.63;;;2.58;100.00
52935;BME280;38802;50.198;19.796;2024-02-21T06:24:02;96602.58;;;2.58;100.00
52935;BME280;38802;50.198;19.796;2024-02-21T06:26:30;96600.37;;;2.58;100.00
52935;BME280;38802;50.198;19.796;2024-02-21T06:28:58;96600.23;;;2.57;100.00
52935;BME280;38802;50.198;19.796;2024-02-21T06:31:28;96602.16;;;2.56;100.00
52935;BME280;38802;50.198;19.796;2024-02-21T06:33:57;96602.15;;;2.56;100.00
52935;BME280;38802;50.198;19.796;2024-02-21T06:36:25;96601.29;;;2.56;100.00
52935;BME280;38802;50.198;19.796;2024-02-21T06:38:53;96603.36;;;2.56;100.00
52935;BME280;38802;50.198;19.796;2024-02-21T06:41:21;96605.53;;;2.62;100.00
52935;BME280;38802;50.198;19.796;2024-02-21T06:43:50;96604.63;;;2.63;100.00
52935;BME280;38802;50.198;19.796;2024-02-21T06:46:28;96606.31;;;2.67;100.00
52935;BME280;38802;50.198;19.796;2024-02-21T06:48:58;96609.67;;;2.72;100.00
52935;BME280;38802;50.198;19.796;2024-02-21T06:51:27;96609.27;;;2.77;100.00
52935;BME280;38802;50.198;19.796;2024-02-21T06:53:55;96608.25;;;2.81;100.00
52935;BME280;38802;50.198;19.796;2024-02-21T06:56:24;96607.91;;;2.84;100.00
52935;BME280;38802;50.198;19.796;2024-02-21T06:58:57;96612.67;;;2.89;100.00
52935;BME280;38802;50.198;19.796;2024-02-21T07:01:25;96609.65;;;2.95;100.00
52935;BME280;38802;50.198;19.796;2024-02-21T07:03:54;96608.06;;;3.00;100.00
52935;BME280;38802;50.198;19.796;2024-02-21T07:06:23;96605.48;;;3.04;100.00
52935;BME280;38802;50.198;19.796;2024-02-21T07:08:51;96609.39;;;3.08;100.00
52935;BME280;38802;50.198;19.796;2024-02-21T07:11:19;96603.44;;;3.15;100.00
52935;BME280;38802;50.198;19.796;2024-02-21T07:13:48;96603.54;;;3.23;100.00
52935;BME280;38802;50.198;19.796;2024-02-21T07:16:16;96601.21;;;3.32;100.00
52935;BME280;38802;50.198;19.796;2024-02-21T07:18:45;96602.80;;;3.38;100.00
52935;BME280;38802;50.198;19.796;2024-02-21T07:21:13;96600.63;;;3.41;100.00
52935;BME280;38802;50.198;19.796;2024-02-21T07:23:41;96596.67;;;3.44;100.00
52935;BME280;38802;50.198;19.796;2024-02-21T07:26:10;96595.82;;;3.49;100.00
52935;BME280;38802;50.198;19.796;2024-02-21T07:28:38;96592.98;;;3.54;100.00
52935;BME280;38802;50.198;19.796;2024-02-21T07:31:06;96591.67;;;3.56;100.00
52935;BME280;38802;50.198;19.796;2024-02-21T07:33:34;96591.98;;;3.64;100.00
52935;BME280;38802;50.198;19.796;2024-02-21T07:36:10;96586.42;;;3.75;100.00
52935;BME280;38802;50.198;19.796;2024-02-21T07:38:39;96585.73;;;3.82;100.00
52935;BME280;38802;50.198;19.796;2024-02-21T07:41:07;96584.27;;;3.88;100.00
52935;BME280;38802;50.198;19.796;2024-02-21T07:43:35;96583.44;;;3.97;100.00
52935;BME280;38802;50.198;19.796;2024-02-21T07:46:03;96580.77;;;4.06;100.00
52935;BME280;38802;50.198;19.796;2024-02-21T07:48:32;96579.80;;;4.15;100.00
52935;BME280;38802;50.198;19.796;2024-02-21T07:51:02;96578.52;;;4.23;100.00
52935;BME280;38802;50.198;19.796;2024-02-21T07:53:30;96575.34;;;4.31;100.00
52935;BME280;38802;50.198;19.796;2024-02-21T07:55:59;96576.94;;;4.37;100.00
52935;BME280;38802;50.198;19.796;2024-02-21T07:58:27;96572.34;;;4.43;100.00
52935;BME280;38802;50.198;19.796;2024-02-21T08:00:55;96571.27;;;4.43;100.00
52935;BME280;38802;50.198;19.796;2024-02-21T08:03:24;96572.99;;;4.47;100.00
52935;BME280;38802;50.198;19.796;2024-02-21T08:05:54;96570.99;;;4.52;100.00
52935;BME280;38802;50.198;19.796;2024-02-21T08:08:22;96573.36;;;4.56;100.00
52935;BME280;38802;50.198;19.796;2024-02-21T08:10:50;96568.92;;;4.61;100.00
52935;BME280;38802;50.198;19.796;2024-02-21T08:13:19;96571.33;;;4.55;100.00
52935;BME280;38802;50.198;19.796;2024-02-21T08:15:47;96566.41;;;4.51;100.00
52935;BME280;38802;50.198;19.796;2024-02-21T08:18:15;96563.69;;;4.47;100.00
52935;BME280;38802;50.198;19.796;2024-02-21T08:20:43;96561.48;;;4.46;100.00
52935;BME280;38802;50.198;19.796;2024-02-21T08:23:11;96560.02;;;4.38;100.00
52935;BME280;38802;50.198;19.796;2024-02-21T08:25:40;96561.30;;;4.37;100.00
52935;BME280;38802;50.198;19.796;2024-02-21T08:28:08;96557.63;;;4.34;100.00
52935;BME280;38802;50.198;19.796;2024-02-21T08:30:36;96554.68;;;4.31;100.00
52935;BME280;38802;50.198;19.796;2024-02-21T08:33:04;96551.20;;;4.32;100.00
52935;BME280;38802;50.198;19.796;2024-02-21T08:35:32;96549.90;;;4.34;100.00
52935;BME280;38802;50.198;19.796;2024-02-21T08:38:00;96544.25;;;4.40;100.00
52935;BME280;38802;50.198;19.796;2024-02-21T08:40:29;96541.31;;;4.50;100.00
52935;BME280;38802;50.198;19.796;2024-02-21T08:42:57;96540.85;;;4.55;100.00
52935;BME280;38802;50.198;19.796;2024-02-21T08:45:25;96536.82;;;4.60;100.00
52935;BME280;38802;50.198;19.796;2024-02-21T08:47:53;96537.48;;;4.67;100.00
52935;BME280;38802;50.198;19.796;2024-02-21T08:50:21;96533.52;;;4.73;100.00
52935;BME280;38802;50.198;19.796;2024-02-21T08:52:56;96533.05;;;4.79;100.00
52935;BME280;38802;50.198;19.796;2024-02-21T08:55:25;96533.05;;;4.82;100.00
52935;BME280;38802;50.198;19.796;2024-02-21T08:57:53;96533.88;;;4.83;100.00
52935;BME280;38802;50.198;19.796;2024-02-21T09:00:22;96532.25;;;4.84;100.00
52935;BME280;38802;50.198;19.796;2024-02-21T09:02:55;96535.36;;;4.87;100.00
52935;BME280;38802;50.198;19.796;2024-02-21T09:05:25;96530.70;;;4.91;100.00
52935;BME280;38802;50.198;19.796;2024-02-21T09:07:54;96534.08;;;4.95;100.00
52935;BME280;38802;50.198;19.796;2024-02-21T09:10:22;96530.27;;;5.04;100.00
52935;BME280;38802;50.198;19.796;2024-02-21T09:12:50;96531.05;;;5.15;100.00
52935;BME280;38802;50.198;19.796;2024-02-21T09:15:18;96529.23;;;5.23;100.00
52935;BME280;38802;50.198;19.796;2024-02-21T09:17:47;96527.64;;;5.33;100.00
52935;BME280;38802;50.198;19.796;2024-02-21T09:20:15;96529.31;;;5.40;100.00
52935;BME280;38802;50.198;19.796;2024-02-21T09:22:44;96525.79;;;5.47;100.00
52935;BME280;38802;50.198;19.796;2024-02-21T09:25:13;96524.07;;;5.53;100.00
52935;BME280;38802;50.198;19.796;2024-02-21T09:27:41;96527.89;;;5.62;100.00
52935;BME280;38802;50.198;19.796;2024-02-21T09:30:09;96526.94;;;5.72;100.00
52935;BME280;38802;50.198;19.796;2024-02-21T09:32:38;96525.80;;;5.77;100.00
52935;BME280;38802;50.198;19.796;2024-02-21T09:35:07;96524.00;;;5.84;100.00
52935;BME280;38802;50.198;19.796;2024-02-21T09:37:38;96525.90;;;5.96;100.00
52935;BME280;38802;50.198;19.796;2024-02-21T09:41:23;96522.81;;;6.08;100.00
52935;BME280;38802;50.198;19.796;2024-02-21T09:44:36;96526.58;;;6.02;100.00
52935;BME280;38802;50.198;19.796;2024-02-21T09:51:02;96533.86;;;6.04;100.00
52935;BME280;38802;50.198;19.796;2024-02-21T09:53:32;96529.94;;;6.07;100.00
52935;BME280;38802;50.198;19.796;2024-02-21T09:56:02;96523.58;;;6.15;100.00
52935;BME280;38802;50.198;19.796;2024-02-21T09:58:31;96523.61;;;6.28;100.00
52935;BME280;38802;50.198;19.796;2024-02-21T10:01:00;96522.34;;;6.41;100.00
52935;BME280;38802;50.198;19.796;2024-02-21T10:03:31;96518.44;;;6.48;100.00
52935;BME280;38802;50.198;19.796;2024-02-21T10:06:01;96511.33;;;6.54;100.00
52935;BME280;38802;50.198;19.796;2024-02-21T10:08:30;96514.66;;;6.56;100.00
52935;BME280;38802;50.198;19.796;2024-02-21T10:10:58;96511.71;;;6.57;100.00
52935;BME280;38802;50.198;19.796;2024-02-21T10:13:29;96511.45;;;6.53;100.00
52935;BME280;38802;50.198;19.796;2024-02-21T10:16:07;96512.30;;;6.47;100.00
52935;BME280;38802;50.198;19.796;2024-02-21T10:18:36;96510.80;;;6.43;100.00
52935;BME280;38802;50.198;19.796;2024-02-21T10:21:08;96511.84;;;6.46;100.00
52935;BME280;38802;50.198;19.796;2024-02-21T10:23:47;96503.09;;;6.51;100.00
52935;BME280;38802;50.198;19.796;2024-02-21T10:26:18;96500.19;;;6.53;100.00
52935;BME280;38802;50.198;19.796;2024-02-21T10:28:47;96501.25;;;6.56;100.00
52935;BME280;38802;50.198;19.796;2024-02-21T10:31:27;96496.27;;;6.63;100.00
52935;BME280;38802;50.198;19.796;2024-02-21T10:34:00;96494.31;;;6.78;100.00
52935;BME280;38802;50.198;19.796;2024-02-21T10:36:32;96491.88;;;6.89;100.00
52935;BME280;38802;50.198;19.796;2024-02-21T10:39:10;96486.66;;;6.96;100.00
52935;BME280;38802;50.198;19.796;2024-02-21T10:41:41;96486.51;;;6.98;100.00
52935;BME280;38802;50.198;19.796;2024-02-21T10:44:11;96484.51;;;6.97;100.00
52935;BME280;38802;50.198;19.796;2024-02-21T10:46:39;96490.06;;;6.85;100.00
52935;BME280;38802;50.198;19.796;2024-02-21T10:49:30;96487.28;;;6.77;100.00
52935;BME280;38802;50.198;19.796;2024-02-21T10:52:13;96486.23;;;6.72;100.00
52935;BME280;38802;50.198;19.796;2024-02-21T10:54:46;96484.65;;;6.70;100.00
52935;BME280;38802;50.198;19.796;2024-02-21T10:57:16;96481.52;;;6.68;100.00
52935;BME280;38802;50.198;19.796;2024-02-21T10:59:45;96472.13;;;6.69;100.00
52935;BME280;38802;50.198;19.796;2024-02-21T11:02:15;96467.81;;;6.69;100.00
52935;BME280;38802;50.198;19.796;2024-02-21T11:04:44;96458.95;;;6.72;100.00
52935;BME280;38802;50.198;19.796;2024-02-21T11:07:14;96460.43;;;6.76;100.00
52935;BME280;38802;50.198;19.796;2024-02-21T11:09:51;96456.06;;;6.79;100.00
52935;BME280;38802;50.198;19.796;2024-02-21T11:12:21;96458.08;;;6.78;100.00
52935;BME280;38802;50.198;19.796;2024-02-21T11:14:50;96456.37;;;6.77;100.00
52935;BME280;38802;50.198;19.796;2024-02-21T11:17:19;96455.64;;;6.81;100.00
52935;BME280;38802;50.198;19.796;2024-02-21T11:19:49;96452.26;;;6.82;100.00
52935;BME280;38802;50.198;19.796;2024-02-21T11:22:18;96446.56;;;6.82;100.00
52935;BME280;38802;50.198;19.796;2024-02-21T11:24:47;96442.00;;;6.81;100.00
52935;BME280;38802;50.198;19.796;2024-02-21T11:27:19;96439.10;;;6.80;99.97
52935;BME280;38802;50.198;19.796;2024-02-21T11:29:50;96437.84;;;6.81;100.00
52935;BME280;38802;50.198;19.796;2024-02-21T11:32:22;96436.13;;;6.78;100.00
52935;BME280;38802;50.198;19.796;2024-02-21T11:37:25;96434.84;;;6.76;100.00
52935;BME280;38802;50.198;19.796;2024-02-21T11:39:55;96434.30;;;6.77;99.99
52935;BME280;38802;50.198;19.796;2024-02-21T11:42:27;96429.13;;;6.74;99.87
52935;BME280;38802;50.198;19.796;2024-02-21T11:44:57;96420.21;;;6.71;99.73
52935;BME280;38802;50.198;19.796;2024-02-21T11:47:28;96417.09;;;6.71;99.60
52935;BME280;38802;50.198;19.796;2024-02-21T11:49:57;96414.40;;;6.73;99.46
52935;BME280;38802;50.198;19.796;2024-02-21T11:52:26;96411.71;;;6.82;99.04
52935;BME280;38802;50.198;19.796;2024-02-21T11:54:56;96408.60;;;6.89;99.61
52935;BME280;38802;50.198;19.796;2024-02-21T11:57:33;96406.38;;;7.03;99.09
52935;BME280;38802;50.198;19.796;2024-02-21T12:00:17;96406.54;;;7.08;99.43
52935;BME280;38802;50.198;19.796;2024-02-21T12:02:48;96399.27;;;7.16;98.45
52935;BME280;38802;50.198;19.796;2024-02-21T12:05:21;96402.19;;;7.16;97.85
52935;BME280;38802;50.198;19.796;2024-02-21T12:07:50;96396.53;;;7.13;97.93
52935;BME280;38802;50.198;19.796;2024-02-21T12:10:18;96390.83;;;7.13;98.16
52935;BME280;38802;50.198;19.796;2024-02-21T12:12:46;96391.70;;;7.16;98.41
52935;BME280;38802;50.198;19.796;2024-02-21T12:15:14;96385.12;;;7.21;97.54
52935;BME280;38802;50.198;19.796;2024-02-21T12:17:43;96384.14;;;7.20;97.28
52935;BME280;38802;50.198;19.796;2024-02-21T12:20:11;96384.76;;;7.19;97.70
52935;BME280;38802;50.198;19.796;2024-02-21T12:22:43;96385.77;;;7.22;97.64
52935;BME280;38802;50.198;19.796;2024-02-21T12:25:22;96378.38;;;7.26;97.87
52935;BME280;38802;50.198;19.796;2024-02-21T12:27:51;96379.50;;;7.30;96.61
52935;BME280;38802;50.198;19.796;2024-02-21T12:30:20;96378.65;;;7.28;96.90
52935;BME280;38802;50.198;19.796;2024-02-21T12:32:48;96376.98;;;7.29;96.44
52935;BME280;38802;50.198;19.796;2024-02-21T12:35:17;96375.63;;;7.29;97.08
52935;BME280;38802;50.198;19.796;2024-02-21T12:37:46;96377.33;;;7.34;96.65
52935;BME280;38802;50.198;19.796;2024-02-21T12:40:14;96377.13;;;7.37;96.46
52935;BME280;38802;50.198;19.796;2024-02-21T12:42:43;96373.16;;;7.37;97.10
52935;BME280;38802;50.198;19.796;2024-02-21T12:45:13;96374.23;;;7.42;96.85
52935;BME280;38802;50.198;19.796;2024-02-21T12:47:43;96369.34;;;7.40;96.58
52935;BME280;38802;50.198;19.796;2024-02-21T12:50:11;96367.47;;;7.37;95.94
52935;BME280;38802;50.198;19.796;2024-02-21T12:52:39;96362.56;;;7.30;94.48
52935;BME280;38802;50.198;19.796;2024-02-21T12:55:08;96364.71;;;7.16;95.04
52935;BME280;38802;50.198;19.796;2024-02-21T12:57:39;96366.73;;;7.12;94.88
52935;BME280;38802;50.198;19.796;2024-02-21T13:00:08;96357.52;;;7.11;93.67
52935;BME280;38802;50.198;19.796;2024-02-21T13:02:39;96357.65;;;6.95;93.48
52935;BME280;38802;50.198;19.796;2024-02-21T13:05:09;96359.40;;;6.84;93.69
52935;BME280;38802;50.198;19.796;2024-02-21T13:07:38;96358.38;;;6.76;94.01
52935;BME280;38802;50.198;19.796;2024-02-21T13:10:06;96357.14;;;6.69;94.16